createdAt,value
2023-04-10T00:00:08.372Z,9.58
2023-04-10T00:02:38.665Z,8.70
2023-04-10T00:05:07.633Z,9.28
2023-04-10T00:07:36.334Z,8.73
2023-04-10T00:10:05.270Z,8.55
2023-04-10T00:12:33.528Z,8.68
2023-04-10T00:15:01.755Z,9.08
2023-04-10T00:17:30.037Z,8.38
2023-04-10T00:19:59.491Z,9.45
2023-04-10T00:22:27.817Z,9.10
2023-04-10T00:24:57.093Z,8.85
2023-04-10T00:27:25.398Z,8.70
2023-04-10T00:29:53.661Z,9.48
2023-04-10T00:32:22.074Z,8.43
2023-04-10T00:34:50.429Z,8.98
2023-04-10T00:37:18.761Z,8.68
2023-04-10T00:39:47.037Z,9.13
2023-04-10T00:42:15.470Z,8.55
2023-04-10T00:44:43.746Z,8.73
2023-04-10T00:47:15.520Z,9.55
2023-04-10T00:49:44.361Z,8.37
2023-04-10T00:52:13.270Z,9.13
2023-04-10T00:54:41.512Z,9.05
2023-04-10T00:57:10.218Z,8.80
2023-04-10T00:59:38.594Z,9.43
2023-04-10T01:02:07.291Z,9.38
2023-04-10T01:04:36.165Z,8.43
2023-04-10T01:07:06.140Z,9.35
2023-04-10T01:09:46.360Z,9.60
2023-04-10T01:12:18.913Z,9.23
2023-04-10T01:17:17.070Z,9.30
2023-04-10T01:19:49.356Z,10.13
2023-04-10T01:22:18.090Z,9.83
2023-04-10T01:24:47.905Z,9.88
2023-04-10T01:27:17.671Z,10.20
2023-04-10T01:29:47.501Z,9.83
2023-04-10T01:32:18.080Z,9.83
2023-04-10T01:35:11.913Z,9.20
2023-04-10T01:37:41.747Z,10.63
2023-04-10T01:40:11.691Z,9.80
2023-04-10T01:42:43.192Z,10.48
2023-04-10T01:45:12.898Z,9.70
2023-04-10T01:47:41.176Z,9.35
2023-04-10T01:50:10.889Z,11.43
2023-04-10T01:52:40.119Z,10.60
2023-04-10T01:55:09.292Z,9.85
2023-04-10T01:57:37.567Z,9.63
2023-04-10T02:00:06.703Z,10.98
2023-04-10T02:02:35.525Z,10.05
2023-04-10T02:05:04.232Z,10.00
2023-04-10T02:07:34.076Z,11.03
2023-04-10T02:10:03.874Z,10.63
2023-04-10T02:12:45.198Z,10.78
2023-04-10T02:15:13.523Z,10.55
2023-04-10T02:17:42.652Z,10.88
2023-04-10T02:20:11.334Z,9.93
2023-04-10T02:22:42.710Z,9.90
2023-04-10T02:25:11.319Z,11.48
2023-04-10T02:28:00.439Z,9.00
2023-04-10T02:30:29.200Z,10.80
2023-04-10T02:32:57.479Z,9.33
2023-04-10T02:35:26.364Z,9.48
2023-04-10T02:37:54.614Z,7.83
2023-04-10T02:40:23.140Z,7.62
2023-04-10T02:42:51.467Z,7.75
2023-04-10T02:45:19.721Z,7.25
2023-04-10T02:47:48.061Z,5.58
2023-04-10T02:50:17.993Z,5.45
2023-04-10T02:52:46.241Z,5.33
2023-04-10T02:55:14.510Z,4.37
2023-04-10T02:57:42.794Z,4.60
2023-04-10T03:00:11.307Z,4.58
2023-04-10T03:02:39.717Z,4.97
2023-04-10T03:05:08.956Z,5.53
2023-04-10T03:07:37.232Z,4.67
2023-04-10T03:10:05.707Z,4.92
2023-04-10T03:12:34.144Z,4.75
2023-04-10T03:15:02.445Z,4.42
2023-04-10T03:17:30.680Z,4.42
2023-04-10T03:19:58.889Z,4.40
2023-04-10T03:22:28.027Z,3.98
2023-04-10T03:24:56.725Z,4.95
2023-04-10T03:27:25.352Z,4.42
2023-04-10T03:29:53.689Z,4.22
2023-04-10T03:32:21.948Z,3.98
2023-04-10T03:34:50.188Z,4.05
2023-04-10T03:37:19.325Z,4.40
2023-04-10T03:39:47.605Z,4.00
2023-04-10T03:42:15.937Z,4.65
2023-04-10T03:44:44.171Z,4.33
2023-04-10T03:47:13.533Z,3.67
2023-04-10T03:49:41.770Z,4.20
2023-04-10T03:52:10.235Z,4.03
2023-04-10T03:54:38.461Z,4.17
2023-04-10T03:57:06.732Z,4.08
2023-04-10T03:59:38.614Z,4.33
2023-04-10T04:02:05.010Z,4.12
2023-04-10T04:04:33.626Z,4.35
2023-04-10T04:07:02.049Z,3.22
2023-04-10T04:09:30.293Z,4.00
2023-04-10T04:11:58.555Z,3.87
2023-04-10T04:14:26.813Z,3.25
2023-04-10T04:16:55.173Z,4.40
2023-04-10T04:19:23.467Z,4.53
2023-04-10T04:21:51.806Z,4.37
2023-04-10T04:24:20.241Z,4.60
2023-04-10T04:26:48.496Z,3.85
2023-04-10T04:29:16.743Z,4.25
2023-04-10T04:31:45.080Z,4.35
2023-04-10T04:34:13.303Z,4.17
2023-04-10T04:36:41.575Z,4.53
2023-04-10T04:39:09.824Z,3.83
2023-04-10T04:41:38.086Z,4.17
2023-04-10T04:44:06.702Z,3.95
2023-04-10T04:46:54.315Z,6.15
2023-04-10T04:49:22.568Z,4.50
2023-04-10T04:51:50.825Z,4.10
2023-04-10T04:54:19.084Z,4.37
2023-04-10T04:56:47.354Z,4.17
2023-04-10T04:59:15.970Z,4.40
2023-04-10T05:01:44.353Z,3.33
2023-04-10T05:04:13.088Z,3.85
2023-04-10T05:06:41.789Z,3.15
2023-04-10T05:09:10.401Z,3.80
2023-04-10T05:11:38.679Z,4.20
2023-04-10T05:14:06.926Z,3.02
2023-04-10T05:16:35.182Z,2.75
2023-04-10T05:19:03.423Z,3.08
2023-04-10T05:21:31.683Z,2.42
2023-04-10T05:24:00.132Z,2.75
2023-04-10T05:26:28.383Z,2.60
2023-04-10T05:28:56.749Z,2.37
2023-04-10T05:31:25.454Z,2.30
2023-04-10T05:33:54.756Z,3.67
2023-04-10T05:36:23.036Z,3.10
2023-04-10T05:38:51.289Z,3.65
2023-04-10T05:41:19.569Z,3.00
2023-04-10T05:43:47.825Z,2.70
2023-04-10T05:46:16.336Z,3.75
2023-04-10T05:48:44.545Z,3.70
2023-04-10T05:51:12.893Z,3.25
2023-04-10T05:53:41.130Z,3.30
2023-04-10T05:56:09.612Z,3.37
2023-04-10T05:58:37.876Z,2.70
2023-04-10T06:01:06.420Z,2.95
2023-04-10T06:03:34.807Z,3.87
2023-04-10T06:06:03.416Z,3.62
2023-04-10T06:08:31.676Z,3.42
2023-04-10T06:11:00.213Z,3.67
2023-04-10T06:13:28.601Z,3.67
2023-04-10T06:15:56.940Z,3.08
2023-04-10T06:18:26.865Z,2.75
2023-04-10T06:20:56.802Z,3.75
2023-04-10T06:23:25.495Z,2.72
2023-04-10T06:25:55.991Z,2.40
2023-04-10T06:28:24.576Z,2.72
2023-04-10T06:30:52.923Z,3.05
2023-04-10T06:33:25.723Z,3.70
2023-04-10T06:35:53.058Z,2.67
2023-04-10T06:38:21.502Z,3.85
2023-04-10T06:40:49.761Z,3.70
2023-04-10T06:43:20.732Z,3.92
2023-04-10T06:45:48.954Z,3.50
2023-04-10T06:48:17.516Z,4.35
2023-04-10T06:50:46.082Z,3.77
2023-04-10T06:53:14.454Z,4.35
2023-04-10T06:55:42.787Z,1.72
2023-04-10T06:58:11.034Z,3.33
2023-04-10T07:00:39.321Z,3.22
2023-04-10T07:03:07.751Z,3.55
2023-04-10T07:05:36.059Z,3.25
2023-04-10T07:08:04.383Z,3.37
2023-04-10T07:10:32.646Z,2.37
2023-04-10T07:13:02.147Z,1.47
2023-04-10T07:15:30.613Z,3.05
2023-04-10T07:17:58.986Z,2.95
2023-04-10T07:20:27.993Z,3.52
2023-04-10T07:22:57.786Z,2.87
2023-04-10T07:25:29.224Z,2.45
2023-04-10T07:27:57.643Z,4.12
2023-04-10T07:30:25.988Z,2.67
2023-04-10T07:32:55.893Z,3.42
2023-04-10T07:35:24.477Z,3.17
2023-04-10T07:37:56.521Z,3.05
2023-04-10T07:40:24.420Z,3.08
2023-04-10T07:42:53.989Z,2.85
2023-04-10T07:45:22.497Z,3.00
2023-04-10T07:47:52.451Z,2.98
2023-04-10T07:50:20.713Z,1.95
2023-04-10T07:52:49.594Z,2.62
2023-04-10T07:55:17.856Z,2.15
2023-04-10T07:57:46.683Z,1.22
2023-04-10T08:00:15.394Z,2.55
2023-04-10T08:02:43.872Z,1.65
2023-04-10T08:05:12.268Z,2.70
2023-04-10T08:07:41.108Z,2.33
2023-04-10T08:10:09.708Z,2.85
2023-04-10T08:12:37.936Z,2.60
2023-04-10T08:15:06.621Z,2.87
2023-04-10T08:17:34.970Z,2.20
2023-04-10T08:20:03.447Z,3.33
2023-04-10T08:22:31.716Z,3.08
2023-04-10T08:24:59.981Z,2.45
2023-04-10T08:27:28.300Z,2.77
2023-04-10T08:29:56.811Z,2.65
2023-04-10T08:32:26.991Z,3.47
2023-04-10T08:34:55.545Z,2.47
2023-04-10T08:37:24.218Z,2.17
2023-04-10T08:39:52.572Z,2.15
2023-04-10T08:42:22.188Z,1.98
2023-04-10T08:44:50.908Z,2.47
2023-04-10T08:47:20.991Z,3.75
2023-04-10T08:49:50.957Z,2.00
2023-04-10T08:52:20.919Z,2.25
2023-04-10T08:54:51.030Z,2.10
2023-04-10T08:57:20.909Z,3.12
2023-04-10T08:59:49.979Z,2.00
2023-04-10T09:02:19.097Z,1.87
2023-04-10T09:04:51.839Z,1.98
2023-04-10T09:07:20.310Z,2.25
2023-04-10T09:09:48.568Z,2.15
2023-04-10T09:12:17.295Z,1.87
2023-04-10T09:14:45.724Z,2.00
2023-04-10T09:17:16.598Z,2.42
2023-04-10T09:19:45.930Z,1.15
2023-04-10T09:22:14.333Z,1.32
2023-04-10T09:24:46.505Z,1.77
2023-04-10T09:27:32.864Z,2.50
2023-04-10T09:30:01.724Z,1.95
2023-04-10T09:32:43.011Z,1.17
2023-04-10T09:35:12.737Z,2.10
2023-04-10T09:37:42.132Z,1.17
2023-04-10T09:40:25.133Z,2.20
2023-04-10T09:45:25.062Z,1.82
2023-04-10T09:48:08.998Z,1.20
2023-04-10T09:50:39.769Z,1.80
2023-04-10T09:53:15.114Z,2.00
2023-04-10T09:55:44.331Z,2.40
2023-04-10T09:58:13.162Z,1.70
2023-04-10T10:00:42.569Z,1.17
2023-04-10T10:03:12.875Z,1.90
2023-04-10T10:05:45.743Z,1.52
2023-04-10T10:08:14.549Z,1.42
2023-04-10T10:10:46.915Z,1.90
2023-04-10T10:13:19.492Z,1.52
2023-04-10T10:15:49.338Z,1.77
2023-04-10T10:18:19.210Z,1.32
2023-04-10T10:20:47.753Z,1.50
2023-04-10T10:23:17.450Z,2.00
2023-04-10T10:25:47.546Z,2.00
2023-04-10T10:28:17.415Z,1.87
2023-04-10T10:30:46.242Z,1.65
2023-04-10T10:33:14.699Z,1.72
2023-04-10T10:35:46.611Z,1.05
2023-04-10T10:38:15.364Z,1.77
2023-04-10T10:40:54.174Z,1.52
2023-04-10T10:43:26.800Z,2.45
2023-04-10T10:46:11.498Z,1.40
2023-04-10T10:48:41.471Z,1.87
2023-04-10T10:51:09.836Z,1.98
2023-04-10T10:53:40.121Z,1.90
2023-04-10T10:56:18.740Z,2.15
2023-04-10T10:59:06.354Z,1.60
2023-04-10T11:01:34.766Z,1.42
2023-04-10T11:04:04.721Z,2.17
2023-04-10T11:06:52.169Z,2.67
2023-04-10T11:09:38.189Z,1.75
2023-04-10T11:12:07.588Z,1.75
2023-04-10T11:14:36.128Z,2.15
2023-04-10T11:17:04.607Z,1.70
2023-04-10T11:19:34.602Z,1.87
2023-04-10T11:22:04.648Z,1.60
2023-04-10T11:24:34.660Z,1.85
2023-04-10T11:27:04.140Z,1.40
2023-04-10T11:29:33.947Z,1.35
2023-04-10T11:32:03.490Z,1.12
2023-04-10T11:34:32.953Z,1.40
2023-04-10T11:37:04.382Z,2.00
2023-04-10T11:39:32.635Z,1.70
2023-04-10T11:42:01.465Z,1.80
2023-04-10T11:44:31.444Z,1.50
2023-04-10T11:46:59.804Z,1.70
2023-04-10T11:49:28.835Z,1.20
2023-04-10T11:51:57.111Z,1.45
2023-04-10T11:54:26.752Z,2.00
2023-04-10T11:57:05.574Z,2.00
2023-04-10T11:59:34.436Z,1.80
2023-04-10T12:02:09.835Z,1.62
2023-04-10T12:04:38.654Z,1.62
2023-04-10T12:07:07.025Z,2.00
2023-04-10T12:09:37.239Z,2.08
2023-04-10T12:12:08.734Z,1.50
2023-04-10T12:14:40.752Z,1.15
2023-04-10T12:17:10.251Z,1.27
2023-04-10T12:19:38.998Z,1.55
2023-04-10T12:22:26.717Z,1.98
2023-04-10T12:24:54.969Z,1.50
2023-04-10T12:27:25.540Z,1.55
2023-04-10T12:29:55.042Z,1.82
2023-04-10T12:32:24.001Z,2.00
2023-04-10T12:34:59.134Z,1.12
2023-04-10T12:37:45.938Z,1.12
2023-04-10T12:40:14.575Z,1.37
2023-04-10T12:42:43.385Z,1.32
2023-04-10T12:45:13.277Z,1.65
2023-04-10T12:47:48.828Z,1.75
2023-04-10T12:50:17.609Z,1.75
2023-04-10T12:52:47.616Z,2.05
2023-04-10T12:55:21.438Z,1.30
2023-04-10T12:57:51.997Z,1.57
2023-04-10T13:00:20.566Z,1.98
2023-04-10T13:02:49.648Z,1.30
2023-04-10T13:05:18.113Z,1.40
2023-04-10T13:07:46.551Z,1.20
2023-04-10T13:10:14.849Z,1.15
2023-04-10T13:12:44.448Z,1.32
2023-04-10T13:15:16.123Z,1.15
2023-04-10T13:17:46.267Z,0.95
2023-04-10T13:20:14.779Z,1.25
2023-04-10T13:22:43.265Z,1.22
2023-04-10T13:25:13.070Z,0.98
2023-04-10T13:27:41.310Z,1.10
2023-04-10T13:30:09.826Z,1.20
2023-04-10T13:32:39.323Z,0.93
2023-04-10T13:35:08.091Z,1.00
2023-04-10T13:37:36.513Z,0.82
2023-04-10T13:40:05.140Z,0.85
2023-04-10T13:42:36.092Z,1.25
2023-04-10T13:45:05.095Z,0.78
2023-04-10T13:47:33.501Z,1.05
2023-04-10T13:50:01.999Z,1.30
2023-04-10T13:52:30.412Z,0.98
2023-04-10T13:54:58.674Z,0.68
2023-04-10T13:57:26.988Z,1.00
2023-04-10T13:59:55.241Z,1.20
2023-04-10T14:02:23.644Z,1.30
2023-04-10T14:04:51.973Z,0.90
2023-04-10T14:07:20.514Z,1.02
2023-04-10T14:09:49.345Z,0.75
2023-04-10T14:12:19.125Z,0.60
2023-04-10T14:14:47.529Z,1.20
2023-04-10T14:17:17.198Z,1.30
2023-04-10T14:19:50.191Z,1.12
2023-04-10T14:22:19.150Z,0.88
2023-04-10T14:24:47.440Z,1.25
2023-04-10T14:27:17.608Z,0.93
2023-04-10T14:29:54.362Z,1.20
2023-04-10T14:32:15.984Z,0.95
2023-04-10T14:34:44.215Z,1.12
2023-04-10T14:37:14.768Z,1.30
2023-04-10T14:39:42.582Z,1.00
2023-04-10T14:42:10.829Z,0.80
2023-04-10T14:44:39.164Z,1.17
2023-04-10T14:47:07.910Z,0.95
2023-04-10T14:49:36.268Z,0.95
2023-04-10T14:52:04.747Z,1.00
2023-04-10T14:54:33.011Z,1.15
2023-04-10T14:57:01.846Z,1.20
2023-04-10T14:59:30.343Z,1.10
2023-04-10T15:01:58.745Z,1.30
2023-04-10T15:04:27.055Z,1.22
2023-04-10T15:06:55.288Z,0.93
2023-04-10T15:09:23.556Z,1.17
2023-04-10T15:11:51.865Z,1.12
2023-04-10T15:14:20.119Z,1.20
2023-04-10T15:16:48.416Z,1.32
2023-04-10T15:19:16.655Z,0.78
2023-04-10T15:21:44.922Z,1.17
2023-04-10T15:24:13.218Z,1.40
2023-04-10T15:26:47.522Z,1.05
2023-04-10T15:29:15.801Z,1.10
2023-04-10T15:31:44.054Z,1.32
2023-04-10T15:34:13.709Z,0.90
2023-04-10T15:36:41.947Z,1.17
2023-04-10T15:39:10.751Z,1.80
2023-04-10T15:41:39.021Z,1.25
2023-04-10T15:44:07.303Z,1.17
2023-04-10T15:46:37.431Z,1.02
2023-04-10T15:49:05.807Z,1.42
2023-04-10T15:51:34.154Z,1.42
2023-04-10T15:54:04.063Z,1.47
2023-04-10T15:56:33.393Z,1.60
2023-04-10T15:59:01.722Z,1.57
2023-04-10T16:01:30.748Z,1.32
2023-04-10T16:03:59.386Z,1.80
2023-04-10T16:06:28.067Z,1.62
2023-04-10T16:08:56.324Z,1.40
2023-04-10T16:11:24.579Z,1.30
2023-04-10T16:13:52.893Z,1.32
2023-04-10T16:16:21.330Z,1.75
2023-04-10T16:18:49.573Z,1.22
2023-04-10T16:21:18.040Z,1.70
2023-04-10T16:23:46.480Z,1.50
2023-04-10T16:26:14.699Z,1.37
2023-04-10T16:28:42.967Z,1.45
2023-04-10T16:31:11.327Z,1.45
2023-04-10T16:33:39.550Z,1.67
2023-04-10T16:36:07.964Z,1.17
2023-04-10T16:38:36.249Z,1.45
2023-04-10T16:41:05.302Z,2.02
2023-04-10T16:43:33.582Z,1.45
2023-04-10T16:46:01.851Z,2.15
2023-04-10T16:48:30.194Z,1.70
2023-04-10T16:51:00.116Z,1.95
2023-04-10T16:53:28.358Z,2.08
2023-04-10T16:56:02.125Z,2.20
2023-04-10T16:58:29.829Z,1.72
2023-04-10T17:00:58.581Z,1.57
2023-04-10T17:03:26.939Z,1.17
2023-04-10T17:05:55.374Z,1.70
2023-04-10T17:08:23.659Z,2.00
2023-04-10T17:10:51.937Z,2.40
2023-04-10T17:13:20.355Z,3.80
2023-04-10T17:15:48.584Z,3.25
2023-04-10T17:18:18.559Z,1.80
2023-04-10T17:20:48.305Z,2.22
2023-04-10T17:23:16.661Z,1.47
2023-04-10T17:25:45.005Z,1.80
2023-04-10T17:28:13.383Z,1.10
2023-04-10T17:30:43.203Z,1.67
2023-04-10T17:33:11.452Z,2.02
2023-04-10T17:35:39.730Z,3.12
2023-04-10T17:38:08.039Z,1.85
2023-04-10T17:40:38.126Z,2.12
2023-04-10T17:43:06.395Z,1.60
2023-04-10T17:45:36.177Z,1.87
2023-04-10T17:48:04.825Z,2.17
2023-04-10T17:50:34.313Z,2.10
2023-04-10T17:53:02.689Z,2.12
2023-04-10T17:55:30.978Z,1.47
2023-04-10T17:57:59.241Z,1.62
2023-04-10T18:00:27.519Z,1.90
2023-04-10T18:02:57.508Z,1.92
2023-04-10T18:05:25.938Z,1.70
2023-04-10T18:07:54.215Z,1.90
2023-04-10T18:10:22.772Z,2.33
2023-04-10T18:12:51.041Z,2.05
2023-04-10T18:15:19.373Z,2.20
2023-04-10T18:17:47.680Z,2.17
2023-04-10T18:20:17.622Z,2.10
2023-04-10T18:22:48.920Z,2.20
2023-04-10T18:25:17.302Z,2.37
2023-04-10T18:27:55.626Z,2.30
2023-04-10T18:30:17.612Z,2.70
2023-04-10T18:32:46.392Z,2.77
2023-04-10T18:35:14.751Z,4.17
2023-04-10T18:37:44.369Z,4.72
2023-04-10T18:40:16.349Z,4.60
2023-04-10T18:42:42.570Z,3.98
2023-04-10T18:45:12.845Z,4.25
2023-04-10T18:47:41.188Z,3.58
2023-04-10T18:50:11.362Z,3.55
2023-04-10T18:52:39.664Z,3.72
2023-04-10T18:55:08.326Z,3.05
2023-04-10T18:57:36.697Z,2.80
2023-04-10T19:00:06.678Z,2.47
2023-04-10T19:02:35.102Z,2.67
2023-04-10T19:05:03.653Z,2.33
2023-04-10T19:07:32.793Z,2.22
2023-04-10T19:10:01.181Z,1.90
2023-04-10T19:12:29.401Z,2.00
2023-04-10T19:14:57.687Z,2.10
2023-04-10T19:17:26.236Z,1.70
2023-04-10T19:19:55.353Z,2.17
2023-04-10T19:22:23.640Z,2.27
2023-04-10T19:24:51.984Z,2.08
2023-04-10T19:27:20.230Z,1.80
2023-04-10T19:29:48.537Z,3.05
2023-04-10T19:32:16.803Z,6.30
2023-04-10T19:34:46.742Z,3.40
2023-04-10T19:37:15.041Z,3.65
2023-04-10T19:39:43.281Z,3.50
2023-04-10T19:42:11.596Z,2.20
2023-04-10T19:44:40.048Z,2.33
2023-04-10T19:47:08.475Z,1.25
2023-04-10T19:49:36.778Z,0.82
2023-04-10T19:52:05.300Z,1.00
2023-04-10T19:54:33.746Z,0.90
2023-04-10T19:57:02.272Z,0.50
2023-04-10T19:59:30.622Z,0.20
2023-04-10T20:01:58.997Z,0.40
2023-04-10T20:04:27.501Z,0.30
2023-04-10T20:06:55.958Z,0.17
2023-04-10T20:09:24.387Z,0.20
2023-04-10T20:11:52.628Z,0.10
2023-04-10T20:14:21.005Z,0.20
2023-04-10T20:16:49.624Z,0.15
2023-04-10T20:19:18.058Z,0.10
2023-04-10T20:21:46.356Z,0.20
2023-04-10T20:24:14.847Z,0.10
2023-04-10T20:26:44.779Z,0.20
2023-04-10T20:29:13.196Z,0.28
2023-04-10T20:31:41.559Z,0.10
2023-04-10T20:34:09.867Z,0.10
2023-04-10T20:36:38.288Z,0.10
2023-04-10T20:39:06.696Z,0.20
2023-04-10T20:41:35.064Z,0.10
2023-04-10T20:44:03.547Z,0.13
2023-04-10T20:46:31.930Z,0.00
2023-04-10T20:49:00.493Z,0.00
2023-04-10T20:51:28.839Z,0.20
2023-04-10T20:53:57.133Z,0.20
2023-04-10T20:56:33.135Z,0.10
2023-04-10T20:58:56.235Z,0.10
2023-04-10T21:01:24.851Z,0.05
2023-04-10T21:03:53.158Z,0.20
2023-04-10T21:06:21.757Z,0.10
2023-04-10T21:08:49.989Z,0.10
2023-04-10T21:11:19.735Z,0.10
2023-04-10T21:13:48.073Z,0.10
2023-04-10T21:16:16.479Z,0.17
2023-04-10T21:18:44.695Z,0.20
2023-04-10T21:21:13.060Z,0.10
2023-04-10T21:23:41.446Z,0.20
2023-04-10T21:26:11.257Z,0.17
2023-04-10T21:28:39.754Z,0.10
2023-04-10T21:31:08.225Z,0.20
2023-04-10T21:33:36.463Z,0.10
2023-04-10T21:36:06.232Z,0.10
2023-04-10T21:38:35.147Z,0.10
2023-04-10T21:41:03.520Z,0.62
2023-04-10T21:43:31.868Z,0.10
2023-04-10T21:46:02.664Z,0.10
2023-04-10T21:48:30.129Z,0.10
2023-04-10T21:50:58.403Z,0.10
2023-04-10T21:53:26.736Z,0.20
2023-04-10T21:55:54.986Z,0.10
2023-04-10T21:58:23.260Z,0.10
2023-04-10T22:00:52.434Z,0.20
2023-04-10T22:03:21.126Z,0.10
2023-04-10T22:05:50.346Z,0.20
2023-04-10T22:08:20.083Z,0.10
2023-04-10T22:10:50.060Z,0.20
2023-04-10T22:13:29.570Z,0.10
2023-04-10T22:15:49.005Z,0.20
2023-04-10T22:18:18.401Z,0.10
2023-04-10T22:20:46.683Z,0.10
2023-04-10T22:23:15.769Z,0.10
2023-04-10T22:25:44.106Z,0.10
2023-04-10T22:28:12.373Z,0.10
2023-04-10T22:30:40.702Z,0.10
2023-04-10T22:33:09.303Z,0.20
2023-04-10T22:35:37.693Z,0.10
2023-04-10T22:38:07.419Z,0.20
2023-04-10T22:40:35.871Z,0.72
2023-04-10T22:43:04.131Z,0.68
2023-04-10T22:45:32.410Z,0.10
2023-04-10T22:48:00.829Z,0.15
2023-04-10T22:50:29.107Z,0.10
2023-04-10T22:52:57.347Z,0.20
2023-04-10T22:55:25.825Z,0.10
2023-04-10T22:57:54.341Z,0.10
2023-04-10T23:00:22.603Z,0.10
2023-04-10T23:02:51.043Z,0.10
2023-04-10T23:05:19.317Z,0.10
2023-04-10T23:07:47.564Z,0.10
2023-04-10T23:10:15.951Z,0.10
2023-04-10T23:12:44.260Z,0.20
2023-04-10T23:15:12.607Z,0.10
2023-04-10T23:17:40.917Z,0.10
2023-04-10T23:20:09.582Z,0.10
2023-04-10T23:22:37.880Z,0.30
2023-04-10T23:25:06.338Z,0.20
2023-04-10T23:27:34.585Z,0.10
2023-04-10T23:30:04.007Z,0.10
2023-04-10T23:32:33.516Z,0.10
2023-04-10T23:35:01.921Z,0.20
2023-04-10T23:37:30.241Z,0.10
2023-04-10T23:39:58.582Z,0.20
2023-04-10T23:42:26.920Z,0.10
2023-04-10T23:44:55.257Z,0.10
2023-04-10T23:47:23.625Z,0.10
2023-04-10T23:49:51.971Z,0.20
2023-04-10T23:52:20.226Z,0.20
2023-04-10T23:54:48.492Z,0.10
2023-04-10T23:57:16.840Z,0.20
2023-04-10T23:59:46.573Z,0.10
